createdAt,value
2023-05-17T00:00:02.123Z,0.90
2023-05-17T00:01:02.095Z,0.90
2023-05-17T00:02:02.078Z,0.90
2023-05-17T00:03:02.145Z,0.90
2023-05-17T00:04:02.077Z,1.00
2023-05-17T00:05:02.077Z,0.90
2023-05-17T00:06:02.107Z,0.80
2023-05-17T00:07:02.024Z,0.90
2023-05-17T00:08:02.035Z,1.00
2023-05-17T00:09:02.005Z,0.80
2023-05-17T00:10:02.034Z,0.90
2023-05-17T00:11:01.983Z,0.80
2023-05-17T00:12:02.024Z,0.90
2023-05-17T00:13:01.979Z,1.00
2023-05-17T00:14:01.974Z,0.90
2023-05-17T00:15:01.948Z,0.90
2023-05-17T00:16:01.950Z,0.80
2023-05-17T00:17:01.925Z,0.90
2023-05-17T00:18:02.033Z,1.00
2023-05-17T00:19:01.967Z,1.00
2023-05-17T00:20:01.906Z,0.90
2023-05-17T00:21:01.887Z,1.00
2023-05-17T00:22:01.886Z,1.30
2023-05-17T00:23:01.898Z,0.90
2023-05-17T00:24:01.937Z,0.90
2023-05-17T00:25:01.923Z,0.80
2023-05-17T00:26:01.867Z,0.90
2023-05-17T00:27:01.862Z,0.90
2023-05-17T00:28:01.820Z,1.10
2023-05-17T00:29:01.807Z,0.90
2023-05-17T00:30:01.866Z,0.90
2023-05-17T00:31:01.791Z,1.00
2023-05-17T00:32:01.775Z,0.80
2023-05-17T00:33:01.835Z,0.40
2023-05-17T00:34:01.764Z,0.30
2023-05-17T00:35:01.855Z,0.50
2023-05-17T00:36:01.767Z,0.30
2023-05-17T00:37:01.778Z,0.30
2023-05-17T00:38:01.737Z,0.30
2023-05-17T00:39:01.705Z,0.20
2023-05-17T00:40:01.723Z,0.30
2023-05-17T00:41:01.688Z,0.20
2023-05-17T00:42:01.720Z,0.10
2023-05-17T00:43:01.665Z,0.20
2023-05-17T00:44:01.665Z,0.20
2023-05-17T00:45:01.643Z,0.20
2023-05-17T00:46:01.634Z,0.10
2023-05-17T00:47:01.618Z,0.20
2023-05-17T00:48:01.786Z,0.20
2023-05-17T00:49:01.605Z,0.10
2023-05-17T00:50:01.589Z,0.10
2023-05-17T00:51:01.579Z,0.20
2023-05-17T00:52:01.559Z,0.10
2023-05-17T00:53:01.554Z,0.10
2023-05-17T00:54:01.571Z,0.10
2023-05-17T00:55:01.537Z,0.10
2023-05-17T00:56:01.521Z,0.10
2023-05-17T00:57:01.527Z,0.10
2023-05-17T00:58:01.508Z,0.10
2023-05-17T00:59:01.535Z,0.10
2023-05-17T01:00:01.528Z,0.10
2023-05-17T01:01:01.471Z,0.00
2023-05-17T01:02:01.461Z,0.10
2023-05-17T01:03:01.567Z,0.00
2023-05-17T01:04:01.570Z,0.10
2023-05-17T01:05:01.516Z,0.10
2023-05-17T01:06:01.464Z,0.10
2023-05-17T01:07:01.409Z,0.10
2023-05-17T01:08:01.413Z,0.20
2023-05-17T01:09:01.387Z,0.00
2023-05-17T01:10:01.381Z,0.10
2023-05-17T01:11:01.375Z,0.10
2023-05-17T01:12:01.402Z,0.00
2023-05-17T01:13:01.364Z,0.10
2023-05-17T01:14:01.442Z,0.00
2023-05-17T01:15:01.332Z,0.10
2023-05-17T01:16:01.334Z,0.10
2023-05-17T01:17:01.320Z,0.00
2023-05-17T01:18:01.464Z,0.00
2023-05-17T01:19:01.401Z,0.00
2023-05-17T01:20:01.543Z,0.10
2023-05-17T01:21:01.278Z,0.00
2023-05-17T01:22:01.353Z,0.00
2023-05-17T01:23:01.251Z,0.00
2023-05-17T01:24:01.320Z,0.00
2023-05-17T01:25:01.240Z,0.10
2023-05-17T01:26:01.227Z,0.00
2023-05-17T01:27:01.243Z,0.00
2023-05-17T01:28:01.211Z,0.00
2023-05-17T01:29:01.202Z,0.00
2023-05-17T01:30:01.221Z,0.00
2023-05-17T01:31:01.176Z,0.00
2023-05-17T01:32:01.172Z,0.00
2023-05-17T01:33:01.249Z,0.10
2023-05-17T01:34:01.324Z,0.00
2023-05-17T01:35:01.133Z,0.10
2023-05-17T01:36:01.160Z,0.10
2023-05-17T01:37:01.111Z,0.00
2023-05-17T01:38:01.115Z,0.00
2023-05-17T01:39:01.101Z,0.10
2023-05-17T01:40:01.107Z,0.10
2023-05-17T01:41:01.086Z,0.10
2023-05-17T01:42:01.083Z,0.00
2023-05-17T01:43:01.046Z,0.00
2023-05-17T01:44:01.060Z,0.10
2023-05-17T01:45:01.020Z,0.00
2023-05-17T01:46:01.018Z,0.00
2023-05-17T01:47:01.011Z,0.00
2023-05-17T01:48:01.277Z,0.00
2023-05-17T01:49:01.059Z,0.10
2023-05-17T01:50:00.975Z,0.10
2023-05-17T01:51:00.964Z,0.00
2023-05-17T01:52:00.953Z,0.10
2023-05-17T01:53:01.011Z,0.10
2023-05-17T01:54:00.966Z,0.00
2023-05-17T01:55:00.886Z,0.00
2023-05-17T01:56:01.124Z,0.00
2023-05-17T01:57:00.900Z,0.10
2023-05-17T01:58:00.900Z,0.10
2023-05-17T01:59:00.889Z,0.00
2023-05-17T02:00:00.923Z,0.00
2023-05-17T02:01:00.859Z,0.10
2023-05-17T02:02:00.856Z,0.00
2023-05-17T02:03:00.868Z,0.10
2023-05-17T02:04:00.874Z,0.00
2023-05-17T02:05:00.865Z,0.00
2023-05-17T02:06:00.843Z,0.00
2023-05-17T02:07:00.796Z,0.00
2023-05-17T02:08:00.866Z,0.10
2023-05-17T02:09:00.757Z,0.00
2023-05-17T02:10:00.730Z,0.00
2023-05-17T02:11:00.727Z,0.00
2023-05-17T02:12:00.804Z,0.10
2023-05-17T02:13:00.690Z,0.00
2023-05-17T02:14:00.688Z,0.00
2023-05-17T02:15:00.668Z,0.00
2023-05-17T02:16:00.665Z,0.00
2023-05-17T02:17:00.655Z,0.00
2023-05-17T02:18:00.756Z,0.00
2023-05-17T02:19:00.667Z,0.00
2023-05-17T02:20:00.644Z,0.00
2023-05-17T02:21:00.617Z,0.00
2023-05-17T02:22:00.616Z,0.10
2023-05-17T02:23:00.595Z,0.00
2023-05-17T02:24:00.630Z,0.00
2023-05-17T02:25:00.572Z,0.00
2023-05-17T02:26:00.569Z,0.00
2023-05-17T02:27:00.559Z,0.00
2023-05-17T02:28:00.671Z,0.00
2023-05-17T02:29:00.536Z,0.00
2023-05-17T02:30:00.609Z,0.00
2023-05-17T02:31:00.515Z,0.00
2023-05-17T02:32:00.514Z,0.10
2023-05-17T02:33:00.601Z,0.00
2023-05-17T02:34:00.661Z,0.00
2023-05-17T02:35:00.492Z,0.00
2023-05-17T02:36:00.508Z,0.00
2023-05-17T02:37:00.442Z,0.10
2023-05-17T02:38:00.444Z,0.00
2023-05-17T02:39:00.420Z,0.10
2023-05-17T02:40:00.417Z,0.10
2023-05-17T02:41:00.413Z,0.00
2023-05-17T02:42:00.691Z,0.00
2023-05-17T02:43:00.407Z,0.10
2023-05-17T02:44:00.381Z,0.10
2023-05-17T02:45:00.372Z,0.10
2023-05-17T02:46:00.357Z,0.10
2023-05-17T02:47:00.361Z,0.00
2023-05-17T02:48:00.411Z,0.00
2023-05-17T02:49:00.331Z,0.00
2023-05-17T02:50:00.320Z,0.10
2023-05-17T02:51:00.309Z,0.00
2023-05-17T02:52:00.288Z,0.00
2023-05-17T02:53:00.283Z,0.00
2023-05-17T02:54:00.305Z,0.10
2023-05-17T02:55:00.278Z,0.00
2023-05-17T02:56:00.247Z,0.00
2023-05-17T02:57:00.245Z,0.10
2023-05-17T02:58:00.227Z,0.00
2023-05-17T02:59:00.225Z,0.00
2023-05-17T03:00:00.277Z,0.00
2023-05-17T03:01:00.201Z,0.10
2023-05-17T03:02:00.188Z,0.10
2023-05-17T03:03:00.256Z,0.00
2023-05-17T03:04:00.319Z,0.10
2023-05-17T03:05:00.158Z,0.00
2023-05-17T03:06:00.173Z,0.00
2023-05-17T03:07:00.142Z,0.00
2023-05-17T03:08:00.141Z,0.00
2023-05-17T03:09:00.140Z,0.00
2023-05-17T03:10:00.249Z,0.10
2023-05-17T03:11:00.114Z,0.10
2023-05-17T03:12:00.133Z,0.10
2023-05-17T03:13:00.095Z,0.00
2023-05-17T03:14:00.076Z,0.00
2023-05-17T03:15:00.072Z,0.00
2023-05-17T03:16:00.073Z,0.10
2023-05-17T03:17:00.051Z,0.00
2023-05-17T03:18:00.192Z,0.00
2023-05-17T03:19:00.205Z,0.10
2023-05-17T03:20:00.035Z,0.10
2023-05-17T03:21:00.016Z,0.00
2023-05-17T03:22:00.005Z,0.00
2023-05-17T03:22:59.987Z,0.10
2023-05-17T03:24:00.002Z,0.00
2023-05-17T03:24:59.971Z,0.10
2023-05-17T03:26:00.110Z,0.00
2023-05-17T03:27:00.289Z,0.10
2023-05-17T03:28:01.223Z,0.10
2023-05-17T03:28:59.950Z,0.00
2023-05-17T03:29:59.967Z,0.00
2023-05-17T03:31:00.006Z,0.10
2023-05-17T03:31:59.910Z,0.10
2023-05-17T03:32:59.960Z,0.00
2023-05-17T03:34:00.007Z,0.10
2023-05-17T03:34:59.880Z,0.00
2023-05-17T03:35:59.895Z,0.10
2023-05-17T03:36:59.844Z,0.10
2023-05-17T03:37:59.842Z,0.10
2023-05-17T03:38:59.832Z,0.10
2023-05-17T03:40:00.768Z,0.00
2023-05-17T03:40:59.813Z,0.00
2023-05-17T03:41:59.827Z,0.10
2023-05-17T03:42:59.784Z,0.10
2023-05-17T03:43:59.841Z,0.10
2023-05-17T03:44:59.766Z,0.00
2023-05-17T03:45:59.750Z,0.00
2023-05-17T03:46:59.745Z,0.10
2023-05-17T03:47:59.946Z,0.10
2023-05-17T03:48:59.761Z,0.00
2023-05-17T03:49:59.715Z,0.10
2023-05-17T03:50:59.713Z,0.10
2023-05-17T03:51:59.691Z,0.10
2023-05-17T03:52:59.688Z,0.00
2023-05-17T03:53:59.706Z,0.00
2023-05-17T03:54:59.665Z,0.10
2023-05-17T03:55:59.666Z,0.10
2023-05-17T03:56:59.648Z,0.10
2023-05-17T03:57:59.643Z,0.10
2023-05-17T03:58:59.645Z,0.10
2023-05-17T03:59:59.658Z,0.10
2023-05-17T04:00:59.626Z,0.10
2023-05-17T04:01:59.587Z,0.10
2023-05-17T04:02:59.659Z,0.10
2023-05-17T04:03:59.600Z,0.10
2023-05-17T04:05:00.378Z,0.10
2023-05-17T04:05:59.616Z,0.10
2023-05-17T04:06:59.557Z,0.10
2023-05-17T04:07:59.542Z,0.10
2023-05-17T04:08:59.542Z,0.10
2023-05-17T04:09:59.548Z,0.10
2023-05-17T04:10:59.521Z,0.10
2023-05-17T04:11:59.528Z,0.10
2023-05-17T04:12:59.506Z,0.10
2023-05-17T04:13:59.491Z,0.10
2023-05-17T04:14:59.490Z,0.10
2023-05-17T04:15:59.461Z,0.10
2023-05-17T04:16:59.460Z,0.10
2023-05-17T04:17:59.606Z,0.10
2023-05-17T04:18:59.510Z,0.10
2023-05-17T04:19:59.418Z,0.10
2023-05-17T04:20:59.436Z,0.10
2023-05-17T04:21:59.405Z,0.10
2023-05-17T04:22:59.401Z,0.10
2023-05-17T04:23:59.423Z,0.10
2023-05-17T04:24:59.377Z,0.00
2023-05-17T04:25:59.370Z,0.10
2023-05-17T04:27:00.746Z,0.10
2023-05-17T04:27:59.341Z,0.10
2023-05-17T04:28:59.334Z,0.10
2023-05-17T04:29:59.356Z,0.10
2023-05-17T04:30:59.346Z,0.10
2023-05-17T04:31:59.312Z,0.10
2023-05-17T04:32:59.380Z,0.10
2023-05-17T04:33:59.330Z,0.10
2023-05-17T04:34:59.264Z,0.10
2023-05-17T04:35:59.298Z,0.10
2023-05-17T04:36:59.243Z,0.10
2023-05-17T04:37:59.242Z,0.00
2023-05-17T04:38:59.222Z,0.10
2023-05-17T04:39:59.239Z,0.10
2023-05-17T04:40:59.204Z,0.10
2023-05-17T04:41:59.232Z,0.10
2023-05-17T04:42:59.186Z,0.10
2023-05-17T04:43:59.172Z,0.10
2023-05-17T04:44:59.173Z,0.00
2023-05-17T04:45:59.158Z,0.10
2023-05-17T04:46:59.156Z,0.10
2023-05-17T04:47:59.258Z,0.10
2023-05-17T04:48:59.225Z,0.00
2023-05-17T04:49:59.110Z,0.10
2023-05-17T04:50:59.112Z,0.10
2023-05-17T04:51:59.082Z,0.10
2023-05-17T04:52:59.089Z,0.10
2023-05-17T04:53:59.087Z,0.10
2023-05-17T04:54:59.060Z,0.20
2023-05-17T04:55:59.161Z,0.00
2023-05-17T04:56:59.073Z,0.10
2023-05-17T04:57:59.040Z,0.10
2023-05-17T04:58:59.024Z,0.10
2023-05-17T04:59:59.033Z,0.10
2023-05-17T05:00:59.025Z,0.10
2023-05-17T05:01:59.014Z,0.10
2023-05-17T05:02:59.008Z,0.10
2023-05-17T05:03:59.140Z,0.10
2023-05-17T05:04:59.008Z,0.10
2023-05-17T05:05:58.978Z,0.20
2023-05-17T05:06:58.956Z,0.10
2023-05-17T05:07:58.941Z,0.10
2023-05-17T05:08:58.939Z,0.10
2023-05-17T05:09:58.903Z,0.10
2023-05-17T05:10:58.907Z,0.10
2023-05-17T05:11:58.935Z,0.10
2023-05-17T05:12:58.899Z,0.10
2023-05-17T05:13:58.884Z,0.10
2023-05-17T05:15:00.819Z,0.20
2023-05-17T05:15:58.850Z,0.10
2023-05-17T05:16:58.845Z,0.10
2023-05-17T05:17:58.922Z,0.10
2023-05-17T05:18:59.021Z,0.10
2023-05-17T05:19:58.969Z,0.10
2023-05-17T05:20:58.802Z,0.00
2023-05-17T05:21:58.791Z,0.10
2023-05-17T05:22:58.768Z,0.00
2023-05-17T05:23:58.785Z,0.10
2023-05-17T05:24:58.762Z,0.10
2023-05-17T05:25:58.751Z,0.10
2023-05-17T05:26:58.733Z,0.10
2023-05-17T05:27:58.724Z,0.10
2023-05-17T05:28:58.714Z,0.30
2023-05-17T05:29:58.730Z,0.10
2023-05-17T05:30:58.693Z,0.10
2023-05-17T05:31:58.683Z,0.10
2023-05-17T05:32:58.770Z,0.10
2023-05-17T05:33:58.721Z,0.20
2023-05-17T05:34:58.655Z,0.10
2023-05-17T05:35:58.775Z,0.20
2023-05-17T05:36:58.631Z,0.20
2023-05-17T05:37:58.618Z,0.10
2023-05-17T05:38:58.613Z,0.10
2023-05-17T05:39:58.593Z,0.10
2023-05-17T05:40:58.587Z,0.10
2023-05-17T05:41:58.593Z,0.10
2023-05-17T05:42:58.615Z,0.20
2023-05-17T05:43:58.551Z,0.10
2023-05-17T05:44:58.557Z,0.10
2023-05-17T05:45:58.543Z,0.10
2023-05-17T05:46:58.569Z,0.10
2023-05-17T05:47:58.589Z,0.10
2023-05-17T05:48:58.611Z,0.10
2023-05-17T05:49:58.505Z,0.10
2023-05-17T05:50:58.490Z,0.20
2023-05-17T05:51:58.470Z,0.10
2023-05-17T05:53:10.441Z,0.10
2023-05-17T05:53:59.476Z,0.10
2023-05-17T05:54:58.436Z,0.10
2023-05-17T05:55:58.434Z,0.10
2023-05-17T05:56:58.435Z,0.10
2023-05-17T05:57:58.421Z,0.20
2023-05-17T05:58:58.446Z,0.10
2023-05-17T05:59:58.410Z,0.10
2023-05-17T06:00:58.394Z,0.10
2023-05-17T06:01:58.377Z,0.10
2023-05-17T06:02:58.390Z,0.10
2023-05-17T06:03:58.357Z,0.20
2023-05-17T06:04:58.356Z,0.20
2023-05-17T06:05:58.417Z,0.20
2023-05-17T06:06:58.438Z,0.10
2023-05-17T06:07:58.317Z,0.10
2023-05-17T06:08:59.644Z,0.20
2023-05-17T06:09:58.293Z,0.10
2023-05-17T06:10:58.304Z,0.10
2023-05-17T06:11:58.306Z,0.10
2023-05-17T06:12:58.301Z,0.10
2023-05-17T06:13:58.358Z,0.10
2023-05-17T06:14:58.247Z,0.10
2023-05-17T06:15:58.234Z,0.10
2023-05-17T06:16:58.231Z,0.10
2023-05-17T06:17:58.320Z,0.10
2023-05-17T06:18:58.307Z,0.20
2023-05-17T06:19:58.315Z,0.10
2023-05-17T06:20:58.190Z,0.10
2023-05-17T06:21:58.189Z,0.10
2023-05-17T06:22:58.290Z,0.10
2023-05-17T06:23:58.184Z,0.20
2023-05-17T06:24:58.149Z,0.20
2023-05-17T06:25:58.146Z,0.10
2023-05-17T06:26:58.132Z,0.10
2023-05-17T06:27:58.109Z,0.10
2023-05-17T06:28:58.108Z,0.20
2023-05-17T06:29:58.122Z,0.10
2023-05-17T06:30:58.092Z,0.10
2023-05-17T06:31:58.100Z,0.10
2023-05-17T06:32:58.200Z,0.20
2023-05-17T06:33:58.117Z,0.10
2023-05-17T06:34:58.027Z,0.10
2023-05-17T06:36:58.978Z,0.10
2023-05-17T06:37:58.018Z,0.10
2023-05-17T06:38:57.994Z,0.10
2023-05-17T06:40:04.148Z,0.10
2023-05-17T06:40:59.019Z,0.10
2023-05-17T06:41:57.966Z,0.10
2023-05-17T06:42:57.957Z,0.10
2023-05-17T06:43:57.965Z,0.10
2023-05-17T06:44:57.927Z,0.10
2023-05-17T06:45:57.928Z,0.20
2023-05-17T06:46:57.942Z,0.10
2023-05-17T06:47:58.034Z,0.10
2023-05-17T06:48:58.042Z,0.10
2023-05-17T06:49:57.877Z,0.20
2023-05-17T06:50:57.868Z,0.20
2023-05-17T06:51:57.859Z,0.00
2023-05-17T06:52:57.872Z,0.10
2023-05-17T06:53:57.844Z,0.10
2023-05-17T06:54:57.827Z,0.10
2023-05-17T06:55:57.829Z,0.10
2023-05-17T06:56:57.810Z,0.10
2023-05-17T06:57:57.807Z,0.10
2023-05-17T06:58:57.807Z,0.10
2023-05-17T06:59:57.774Z,0.10
2023-05-17T07:00:57.805Z,0.10
2023-05-17T07:01:57.758Z,0.10
2023-05-17T07:02:57.823Z,0.10
2023-05-17T07:03:57.885Z,0.10
2023-05-17T07:04:57.792Z,0.10
2023-05-17T07:05:57.723Z,0.20
2023-05-17T07:06:58.666Z,0.10
2023-05-17T07:07:57.714Z,0.10
2023-05-17T07:08:57.721Z,0.10
2023-05-17T07:09:57.679Z,0.10
2023-05-17T07:10:57.697Z,0.10
2023-05-17T07:11:57.664Z,0.10
2023-05-17T07:12:57.709Z,0.10
2023-05-17T07:13:57.641Z,0.10
2023-05-17T07:14:57.631Z,0.20
2023-05-17T07:15:57.623Z,0.20
2023-05-17T07:16:57.633Z,0.10
2023-05-17T07:17:57.752Z,0.10
2023-05-17T07:18:57.656Z,0.20
2023-05-17T07:19:57.873Z,0.10
2023-05-17T07:20:57.576Z,0.20
2023-05-17T07:21:57.564Z,0.20
2023-05-17T07:22:57.576Z,0.20
2023-05-17T07:23:57.542Z,0.10
2023-05-17T07:24:57.524Z,0.10
2023-05-17T07:25:57.534Z,0.20
2023-05-17T07:26:57.528Z,0.20
2023-05-17T07:27:57.497Z,0.20
2023-05-17T07:28:57.537Z,0.20
2023-05-17T07:29:57.488Z,0.20
2023-05-17T07:30:57.472Z,0.10
2023-05-17T07:31:57.473Z,0.20
2023-05-17T07:32:57.467Z,0.20
2023-05-17T07:33:57.460Z,0.10
2023-05-17T07:34:57.437Z,0.20
2023-05-17T07:35:57.423Z,0.20
2023-05-17T07:36:57.409Z,0.10
2023-05-17T07:37:57.392Z,0.10
2023-05-17T07:38:57.376Z,0.10
2023-05-17T07:39:57.398Z,0.10
2023-05-17T07:40:57.380Z,0.10
2023-05-17T07:41:57.356Z,0.20
2023-05-17T07:42:57.339Z,0.10
2023-05-17T07:43:57.328Z,0.20
2023-05-17T07:44:57.321Z,0.20
2023-05-17T07:45:57.316Z,0.20
2023-05-17T07:46:57.363Z,0.10
2023-05-17T07:47:57.395Z,0.20
2023-05-17T07:48:58.921Z,0.10
2023-05-17T07:49:57.274Z,0.20
2023-05-17T07:50:57.263Z,0.20
2023-05-17T07:51:57.260Z,0.10
2023-05-17T07:52:57.259Z,0.10
2023-05-17T07:53:57.244Z,0.20
2023-05-17T07:54:57.220Z,0.20
2023-05-17T07:55:57.216Z,0.20
2023-05-17T07:56:57.209Z,0.10
2023-05-17T07:57:57.198Z,0.20
2023-05-17T07:58:57.218Z,0.20
2023-05-17T07:59:57.172Z,0.20
2023-05-17T08:00:57.340Z,0.10
2023-05-17T08:01:57.161Z,0.20
2023-05-17T08:02:57.193Z,0.20
2023-05-17T08:03:57.141Z,0.10
2023-05-17T08:04:57.215Z,0.10
2023-05-17T08:05:57.167Z,0.10
2023-05-17T08:06:57.126Z,0.10
2023-05-17T08:07:57.108Z,0.10
2023-05-17T08:08:57.093Z,0.20
2023-05-17T08:09:57.267Z,0.10
2023-05-17T08:10:57.996Z,0.20
2023-05-17T08:11:57.078Z,0.20
2023-05-17T08:12:57.041Z,0.10
2023-05-17T08:13:57.051Z,0.20
2023-05-17T08:14:57.023Z,0.10
2023-05-17T08:16:05.172Z,0.20
2023-05-17T08:16:58.053Z,0.20
2023-05-17T08:17:57.080Z,0.10
2023-05-17T08:18:57.094Z,0.10
2023-05-17T08:19:57.097Z,0.10
2023-05-17T08:20:56.980Z,0.10
2023-05-17T08:21:56.961Z,0.10
2023-05-17T08:22:56.980Z,0.10
2023-05-17T08:23:56.940Z,0.20
2023-05-17T08:24:56.925Z,0.10
2023-05-17T08:25:56.910Z,0.10
2023-05-17T08:26:56.922Z,0.30
2023-05-17T08:27:56.917Z,0.10
2023-05-17T08:28:56.939Z,0.20
2023-05-17T08:29:56.879Z,0.10
2023-05-17T08:30:56.864Z,0.10
2023-05-17T08:31:56.846Z,0.20
2023-05-17T08:32:57.064Z,0.10
2023-05-17T08:33:56.873Z,0.10
2023-05-17T08:34:56.842Z,0.20
2023-05-17T08:35:56.809Z,0.10
2023-05-17T08:36:56.837Z,0.10
2023-05-17T08:37:56.790Z,0.10
2023-05-17T08:38:56.768Z,0.20
2023-05-17T08:39:56.810Z,0.10
2023-05-17T08:40:56.832Z,0.20
2023-05-17T08:41:56.746Z,0.20
2023-05-17T08:42:56.744Z,0.20
2023-05-17T08:43:56.724Z,0.20
2023-05-17T08:44:56.719Z,0.10
2023-05-17T08:45:56.701Z,0.20
2023-05-17T08:46:56.732Z,0.10
2023-05-17T08:47:56.744Z,0.10
2023-05-17T08:48:56.705Z,0.10
2023-05-17T08:49:56.659Z,0.10
2023-05-17T08:50:56.732Z,0.10
2023-05-17T08:51:56.643Z,0.20
2023-05-17T08:52:56.659Z,0.10
2023-05-17T08:53:56.712Z,0.10
2023-05-17T08:54:56.633Z,0.20
2023-05-17T08:55:56.607Z,0.10
2023-05-17T08:56:56.594Z,0.10
2023-05-17T08:57:56.584Z,0.10
2023-05-17T08:58:57.978Z,0.10
2023-05-17T08:59:56.560Z,0.10
2023-05-17T09:00:56.548Z,0.20
2023-05-17T09:01:56.541Z,0.10
2023-05-17T09:02:56.639Z,0.10
2023-05-17T09:03:56.556Z,0.10
2023-05-17T09:04:56.674Z,0.10
2023-05-17T09:05:56.557Z,0.10
2023-05-17T09:06:56.495Z,0.10
2023-05-17T09:07:56.486Z,0.20
2023-05-17T09:08:56.478Z,0.10
2023-05-17T09:09:56.489Z,0.10
2023-05-17T09:10:56.477Z,0.20
2023-05-17T09:11:56.481Z,0.10
2023-05-17T09:12:56.441Z,0.10
2023-05-17T09:13:56.428Z,0.10
2023-05-17T09:14:56.416Z,0.10
2023-05-17T09:15:56.407Z,0.20
2023-05-17T09:16:56.415Z,0.10
2023-05-17T09:17:56.473Z,0.20
2023-05-17T09:18:56.447Z,0.10
2023-05-17T09:19:56.484Z,0.20
2023-05-17T09:20:56.347Z,0.10
2023-05-17T09:21:56.379Z,0.10
2023-05-17T09:22:57.106Z,0.10
2023-05-17T09:24:56.314Z,0.10
2023-05-17T09:25:56.308Z,0.20
2023-05-17T09:26:56.293Z,0.10
2023-05-17T09:27:56.286Z,0.10
2023-05-17T09:28:56.298Z,0.20
2023-05-17T09:29:56.262Z,0.10
2023-05-17T09:30:56.258Z,0.20
2023-05-17T09:31:56.241Z,0.10
2023-05-17T09:32:56.224Z,0.10
2023-05-17T09:33:56.227Z,0.10
2023-05-17T09:34:56.242Z,0.10
2023-05-17T09:35:56.225Z,0.10
2023-05-17T09:36:56.186Z,0.10
2023-05-17T09:37:56.181Z,0.10
2023-05-17T09:38:56.165Z,0.10
2023-05-17T09:39:56.150Z,0.10
2023-05-17T09:40:56.162Z,0.10
2023-05-17T09:41:56.141Z,0.10
2023-05-17T09:42:56.129Z,0.10
2023-05-17T09:43:56.119Z,0.10
2023-05-17T09:44:56.109Z,0.10
2023-05-17T09:45:56.115Z,0.10
2023-05-17T09:46:56.100Z,0.10
2023-05-17T09:47:56.202Z,0.10
2023-05-17T09:48:56.135Z,0.10
2023-05-17T09:49:56.053Z,0.10
2023-05-17T09:50:56.038Z,0.10
2023-05-17T09:51:56.031Z,0.10
2023-05-17T09:52:56.059Z,0.10
2023-05-17T09:53:56.008Z,0.10
2023-05-17T09:54:56.010Z,0.10
2023-05-17T09:55:55.991Z,0.10
2023-05-17T09:56:55.984Z,0.20
2023-05-17T09:57:55.976Z,0.10
2023-05-17T09:58:55.990Z,0.10
2023-05-17T09:59:55.952Z,0.10
2023-05-17T10:00:55.948Z,0.10
2023-05-17T10:01:55.938Z,0.10
2023-05-17T10:02:56.027Z,0.10
2023-05-17T10:03:55.955Z,0.10
2023-05-17T10:04:55.965Z,0.10
2023-05-17T10:05:55.905Z,0.10
2023-05-17T10:06:55.887Z,0.10
2023-05-17T10:07:55.884Z,0.10
2023-05-17T10:08:55.866Z,0.10
2023-05-17T10:09:55.856Z,0.10
2023-05-17T10:10:55.891Z,0.10
2023-05-17T10:11:55.837Z,0.10
2023-05-17T10:12:55.833Z,0.10
2023-05-17T10:13:55.828Z,0.10
2023-05-17T10:14:55.996Z,0.10
2023-05-17T10:15:55.797Z,0.20
2023-05-17T10:16:55.823Z,0.10
2023-05-17T10:17:55.798Z,0.10
2023-05-17T10:18:55.811Z,0.20
2023-05-17T10:19:55.916Z,0.10
2023-05-17T10:20:55.742Z,0.00
2023-05-17T10:21:56.076Z,0.10
2023-05-17T10:22:57.919Z,0.10
2023-05-17T10:23:55.707Z,0.20
2023-05-17T10:24:55.700Z,0.00
2023-05-17T10:25:55.688Z,0.10
2023-05-17T10:26:55.692Z,0.10
2023-05-17T10:27:55.683Z,0.10
2023-05-17T10:28:55.689Z,0.10
2023-05-17T10:29:55.645Z,0.10
2023-05-17T10:30:55.677Z,0.10
2023-05-17T10:31:55.630Z,0.10
2023-05-17T10:32:55.733Z,0.10
2023-05-17T10:33:55.637Z,0.20
2023-05-17T10:35:09.307Z,0.10
2023-05-17T10:35:56.583Z,0.10
2023-05-17T10:36:55.566Z,0.10
2023-05-17T10:37:55.570Z,0.10
2023-05-17T10:38:55.560Z,0.10
2023-05-17T10:39:55.542Z,0.10
2023-05-17T10:40:55.553Z,0.10
2023-05-17T10:42:06.783Z,0.10
2023-05-17T10:42:56.506Z,0.10
2023-05-17T10:43:55.520Z,0.10
2023-05-17T10:44:55.487Z,0.20
2023-05-17T10:45:55.491Z,0.10
2023-05-17T10:46:55.491Z,0.10
2023-05-17T10:47:55.510Z,0.10
2023-05-17T10:48:55.511Z,0.10
2023-05-17T10:49:55.437Z,0.20
2023-05-17T10:51:56.465Z,0.10
2023-05-17T10:52:55.425Z,0.20
2023-05-17T10:53:55.406Z,0.20
2023-05-17T10:54:57.113Z,0.10
2023-05-17T10:55:55.384Z,0.20
2023-05-17T10:56:55.361Z,0.20
2023-05-17T10:57:55.421Z,0.10
2023-05-17T10:58:55.338Z,0.10
2023-05-17T10:59:55.452Z,0.10
2023-05-17T11:00:56.088Z,0.10
2023-05-17T11:01:55.328Z,0.10
2023-05-17T11:02:55.391Z,0.10
2023-05-17T11:03:55.324Z,0.00
2023-05-17T11:04:55.361Z,0.00
2023-05-17T11:05:55.770Z,0.10
2023-05-17T11:06:55.308Z,0.20
2023-05-17T11:07:55.249Z,0.10
2023-05-17T11:08:55.254Z,0.10
2023-05-17T11:09:55.265Z,0.10
2023-05-17T11:10:55.223Z,0.10
2023-05-17T11:11:55.206Z,0.10
2023-05-17T11:12:55.214Z,0.10
2023-05-17T11:13:55.193Z,0.10
2023-05-17T11:14:55.174Z,0.10
2023-05-17T11:15:55.358Z,0.10
2023-05-17T11:16:55.248Z,0.10
2023-05-17T11:17:55.166Z,0.10
2023-05-17T11:18:55.273Z,0.10
2023-05-17T11:19:55.374Z,0.10
2023-05-17T11:20:55.254Z,0.10
2023-05-17T11:21:55.134Z,0.10
2023-05-17T11:22:55.100Z,0.10
2023-05-17T11:23:55.095Z,0.10
2023-05-17T11:24:55.081Z,0.10
2023-05-17T11:25:55.150Z,0.10
2023-05-17T11:26:55.087Z,0.10
2023-05-17T11:27:55.069Z,0.10
2023-05-17T11:28:55.037Z,0.10
2023-05-17T11:29:55.046Z,0.10
2023-05-17T11:30:55.018Z,0.10
2023-05-17T11:31:55.004Z,0.00
2023-05-17T11:32:55.037Z,0.10
2023-05-17T11:33:55.026Z,0.10
2023-05-17T11:34:54.990Z,0.10
2023-05-17T11:35:54.985Z,0.10
2023-05-17T11:36:54.981Z,0.10
2023-05-17T11:37:54.942Z,0.10
2023-05-17T11:39:01.511Z,0.10
2023-05-17T11:39:56.583Z,0.10
2023-05-17T11:40:54.914Z,0.10
2023-05-17T11:41:54.910Z,0.10
2023-05-17T11:42:54.889Z,0.10
2023-05-17T11:43:54.872Z,0.20
2023-05-17T11:44:54.863Z,0.10
2023-05-17T11:45:54.888Z,0.10
2023-05-17T11:46:54.850Z,0.20
2023-05-17T11:47:54.977Z,0.10
2023-05-17T11:48:54.922Z,0.10
2023-05-17T11:49:56.378Z,0.10
2023-05-17T11:50:54.817Z,0.10
2023-05-17T11:51:54.821Z,0.10
2023-05-17T11:52:54.781Z,0.20
2023-05-17T11:53:54.785Z,0.10
2023-05-17T11:54:54.759Z,0.10
2023-05-17T11:55:54.756Z,0.10
2023-05-17T11:56:54.745Z,0.20
2023-05-17T11:57:54.772Z,0.10
2023-05-17T11:58:54.789Z,0.10
2023-05-17T11:59:54.737Z,0.10
2023-05-17T12:00:54.718Z,0.10
2023-05-17T12:01:54.696Z,0.10
2023-05-17T12:02:54.698Z,0.10
2023-05-17T12:03:54.706Z,0.10
2023-05-17T12:04:54.699Z,0.20
2023-05-17T12:05:54.678Z,0.10
2023-05-17T12:06:54.709Z,0.10
2023-05-17T12:07:54.709Z,0.10
2023-05-17T12:08:54.630Z,0.10
2023-05-17T12:09:54.636Z,0.10
2023-05-17T12:10:54.592Z,0.30
2023-05-17T12:11:54.599Z,0.10
2023-05-17T12:12:54.588Z,0.10
2023-05-17T12:13:54.579Z,0.10
2023-05-17T12:14:54.559Z,0.20
2023-05-17T12:15:54.585Z,0.10
2023-05-17T12:16:54.540Z,0.10
2023-05-17T12:17:54.648Z,0.10
2023-05-17T12:18:54.736Z,0.10
2023-05-17T12:19:54.875Z,0.10
2023-05-17T12:20:54.498Z,0.10
2023-05-17T12:21:54.514Z,0.10
2023-05-17T12:22:54.482Z,0.20
2023-05-17T12:23:54.459Z,0.30
2023-05-17T12:24:54.551Z,0.10
2023-05-17T12:25:54.439Z,0.10
2023-05-17T12:26:54.497Z,0.20
2023-05-17T12:27:54.572Z,0.20
2023-05-17T12:28:54.411Z,0.10
2023-05-17T12:29:54.405Z,0.10
2023-05-17T12:30:54.398Z,0.20
2023-05-17T12:31:54.377Z,0.20
2023-05-17T12:32:54.401Z,0.20
2023-05-17T12:33:54.443Z,0.10
2023-05-17T12:34:54.361Z,0.10
2023-05-17T12:35:54.345Z,0.10
2023-05-17T12:36:54.318Z,0.10
2023-05-17T12:37:54.312Z,0.20
2023-05-17T12:38:54.302Z,0.10
2023-05-17T12:39:54.314Z,0.20
2023-05-17T12:40:54.284Z,0.10
2023-05-17T12:41:54.281Z,0.10
2023-05-17T12:42:54.264Z,0.10
2023-05-17T12:44:06.060Z,0.20
2023-05-17T12:44:55.260Z,0.10
2023-05-17T12:45:54.222Z,0.10
2023-05-17T12:46:54.326Z,0.10
2023-05-17T12:47:54.248Z,0.10
2023-05-17T12:48:54.354Z,0.10
2023-05-17T12:49:54.192Z,0.10
2023-05-17T12:50:54.213Z,0.20
2023-05-17T12:51:54.164Z,0.10
2023-05-17T12:52:54.173Z,0.10
2023-05-17T12:53:54.148Z,0.30
2023-05-17T12:54:54.148Z,0.10
2023-05-17T12:55:54.198Z,0.10
2023-05-17T12:56:54.174Z,0.10
2023-05-17T12:57:54.111Z,0.10
2023-05-17T12:58:54.099Z,0.10
2023-05-17T12:59:54.105Z,0.10
2023-05-17T13:00:54.075Z,0.10
2023-05-17T13:01:54.067Z,0.10
2023-05-17T13:02:54.271Z,0.10
2023-05-17T13:03:54.145Z,0.10
2023-05-17T13:04:54.123Z,0.10
2023-05-17T13:05:54.055Z,0.10
2023-05-17T13:06:54.041Z,0.10
2023-05-17T13:07:54.005Z,0.10
2023-05-17T13:08:54.044Z,0.10
2023-05-17T13:09:54.002Z,0.20
2023-05-17T13:10:54.006Z,0.20
2023-05-17T13:11:53.993Z,0.10
2023-05-17T13:12:53.977Z,0.10
2023-05-17T13:13:53.960Z,0.10
2023-05-17T13:14:53.994Z,0.10
2023-05-17T13:15:53.941Z,0.20
2023-05-17T13:16:54.062Z,0.10
2023-05-17T13:17:53.936Z,0.20
2023-05-17T13:18:54.023Z,0.10
2023-05-17T13:19:54.019Z,0.10
2023-05-17T13:20:53.907Z,0.10